This is the latest recevied weather packets stored in our database for station/object SQ6RR-12. If no packets are shown the sender has not sent any weather packets the latest 10 day(s).
| Time | Temp. | Humidity | Pressure | Rain* | Wind** | Luminosity | Snow |
|---|---|---|---|---|---|---|---|
| 1777642307 | 21.67° C | 34% | 1027.7 hPa | 0 mm | - | - | - |
| 1777642023 | 21.11° C | 34% | 1027.7 hPa | 0 mm | - | - | - |
| 1777641743 | 21.67° C | 33% | 1027.7 hPa | 0 mm | - | - | - |
| 1777641486 | 21.67° C | 33% | 1027.8 hPa | 0 mm | - | - | - |
| 1777641207 | 21.67° C | 32% | 1027.8 hPa | 0 mm | - | - | - |
| 1777640933 | 21.67° C | 33% | 1027.9 hPa | 0 mm | - | - | - |
| 1777640657 | 21.67° C | 33% | 1027.9 hPa | 0 mm | - | - | - |
| 1777640393 | 21.67° C | 35% | 1028 hPa | 0 mm | - | - | - |
| 1777640120 | 21.67° C | 33% | 1028 hPa | 0 mm | - | - | - |
| 1777639853 | 21.11° C | 34% | 1028.1 hPa | 0 mm | - | - | - |
| 1777639583 | 21.11° C | 34% | 1028.1 hPa | 0 mm | - | - | - |
| 1777639297 | 20.56° C | 36% | 1028.2 hPa | 0 mm | - | - | - |
| 1777639017 | 21.11° C | 35% | 1028.1 hPa | 0 mm | - | - | - |
| 1777638722 | 21.11° C | 34% | 1028.2 hPa | 0 mm | - | - | - |
| 1777638436 | 20.56° C | 34% | 1028.3 hPa | 0 mm | - | - | - |
| 1777638163 | 20.56° C | 35% | 1028.4 hPa | 0 mm | - | - | - |
| 1777637903 | 20.56° C | 35% | 1028.3 hPa | 0 mm | - | - | - |
| 1777637647 | 21.11° C | 35% | 1028.3 hPa | 0 mm | - | - | - |
| 1777637361 | 20.56° C | 36% | 1028.4 hPa | 0 mm | - | - | - |
| 1777637083 | 20° C | 36% | 1028.5 hPa | 0 mm | - | - | - |
| 1777636797 | 20° C | 38% | 1028.4 hPa | 0 mm | - | - | - |
| 1777636546 | 20.56° C | 34% | 1028.6 hPa | 0 mm | - | - | - |
| 1777636283 | 20° C | 36% | 1028.5 hPa | 0 mm | - | - | - |
| 1777636016 | 21.11° C | 34% | 1028.6 hPa | 0 mm | - | - | - |
| 1777635738 | 20° C | 37% | 1028.6 hPa | 0 mm | - | - | - |
* Rain latest hour (hover to see other rain measurements)
** Current wind speed in m/s (hover to see current wind gust speed)